Time;durP1;ratioP1;P1;durP2;ratioP2;P2;SDS_P1;SDS_P2;PMS_P1;PMS_P2;Temp;Humidity;BMP_temperature;BMP_pressure;BME280_temperature;BME280_humidity;BME280_pressure;Samples;Min_cycle;Max_cycle;Signal;HPM_P1;HPM_P2
2020/12/15 00:02:11;;;;;;;22.63;19.03;;;9.90;99.90;;;;;;5003630;28;20203;-77
2020/12/15 00:04:38;;;;;;;25.33;19.90;;;10.00;99.90;;;;;;5002821;28;20210;-76
2020/12/15 00:07:04;;;;;;;22.53;19.10;;;10.00;99.90;;;;;;5002152;28;20842;-77
2020/12/15 00:09:30;;;;;;;24.07;19.60;;;10.00;99.90;;;;;;5002825;28;20255;-79
2020/12/15 00:11:57;;;;;;;20.47;18.27;;;10.00;99.90;;;;;;5011552;28;20238;-77
2020/12/15 00:14:23;;;;;;;26.83;20.77;;;10.00;99.90;;;;;;5023394;28;20313;-79
2020/12/15 00:16:49;;;;;;;26.87;20.83;;;10.00;99.90;;;;;;5023038;28;20209;-79
2020/12/15 00:19:16;;;;;;;27.80;20.83;;;10.00;99.90;;;;;;5023024;28;20198;-80
2020/12/15 00:21:43;;;;;;;27.57;19.87;;;10.00;99.90;;;;;;5027588;28;20215;-79
2020/12/15 00:24:10;;;;;;;25.23;20.73;;;10.00;99.90;;;;;;5026671;28;20202;-79
2020/12/15 00:26:36;;;;;;;25.10;19.77;;;10.00;99.90;;;;;;5028295;28;20206;-80
2020/12/15 00:29:03;;;;;;;24.90;21.07;;;10.00;99.90;;;;;;5027063;28;20202;-79
2020/12/15 00:31:35;;;;;;;26.73;20.43;;;10.10;99.90;;;;;;5026011;28;20226;-80
2020/12/15 00:34:01;;;;;;;26.27;20.03;;;10.10;99.90;;;;;;5025973;28;20202;-79
2020/12/15 00:36:28;;;;;;;27.73;20.73;;;10.00;99.90;;;;;;5027648;28;20210;-78
2020/12/15 00:38:55;;;;;;;23.70;20.40;;;10.10;99.90;;;;;;5027211;28;20202;-82
2020/12/15 00:41:21;;;;;;;27.67;22.23;;;10.00;99.90;;;;;;5026817;28;20214;-79
2020/12/15 00:43:48;;;;;;;22.83;19.97;;;10.10;99.90;;;;;;5027557;28;20199;-80
2020/12/15 00:46:15;;;;;;;29.07;21.63;;;10.00;99.90;;;;;;5026532;28;20199;-80
2020/12/15 00:48:41;;;;;;;25.97;22.20;;;10.00;99.90;;;;;;5027379;28;20202;-79
2020/12/15 00:51:08;;;;;;;26.43;21.43;;;10.00;99.90;;;;;;5027054;28;20217;-79
2020/12/15 00:53:35;;;;;;;23.40;19.93;;;10.00;99.90;;;;;;5026322;28;20893;-78
2020/12/15 00:56:07;;;;;;;23.43;19.93;;;10.00;99.90;;;;;;5026807;28;20213;-79
2020/12/15 00:58:34;;;;;;;24.13;21.13;;;10.00;99.90;;;;;;5026705;28;20217;-76
2020/12/15 01:01:00;;;;;;;31.83;22.10;;;10.00;99.90;;;;;;5025990;28;20249;-76
2020/12/15 01:03:27;;;;;;;27.77;20.63;;;10.00;99.90;;;;;;5026748;28;20206;-81
2020/12/15 01:05:53;;;;;;;26.67;21.00;;;10.00;99.90;;;;;;5026682;28;20210;-80
2020/12/15 01:08:19;;;;;;;25.33;19.70;;;10.00;99.90;;;;;;5026707;28;20202;-81
2020/12/15 01:10:46;;;;;;;26.87;19.83;;;9.90;99.90;;;;;;5026692;28;20253;-79
2020/12/15 01:13:12;;;;;;;25.17;19.43;;;10.00;99.90;;;;;;5025699;28;20250;-80
2020/12/15 01:15:38;;;;;;;26.10;20.80;;;10.00;99.90;;;;;;5026148;28;20217;-80
2020/12/15 01:18:05;;;;;;;28.23;21.47;;;10.00;99.90;;;;;;5026078;28;20607;-80
2020/12/15 01:20:31;;;;;;;23.70;20.27;;;9.90;99.90;;;;;;5029747;28;20197;-80
2020/12/15 01:22:57;;;;;;;27.73;19.93;;;10.00;99.90;;;;;;5045775;28;20197;-80
2020/12/15 01:25:24;;;;;;;24.20;20.33;;;9.90;99.90;;;;;;5045268;28;20481;-80
2020/12/15 01:27:51;;;;;;;27.13;20.10;;;9.90;99.90;;;;;;5045633;28;20209;-79
2020/12/15 01:30:17;;;;;;;25.33;20.57;;;9.90;99.90;;;;;;5045406;28;20206;-79
2020/12/15 01:32:43;;;;;;;25.83;19.90;;;9.90;99.90;;;;;;5044974;28;20234;-80
2020/12/15 01:35:10;;;;;;;23.00;18.67;;;9.90;99.90;;;;;;5044334;28;20198;-79
2020/12/15 01:37:36;;;;;;;24.50;18.73;;;9.90;99.90;;;;;;5044233;28;20194;-76
2020/12/15 01:40:03;;;;;;;23.17;18.90;;;9.90;99.90;;;;;;5044254;28;20209;-77
2020/12/15 01:42:29;;;;;;;25.13;19.20;;;9.90;99.90;;;;;;5045489;28;20206;-79
2020/12/15 01:44:57;;;;;;;23.33;18.30;;;9.90;99.90;;;;;;5046444;28;20209;-78
2020/12/15 01:47:23;;;;;;;22.87;17.73;;;9.90;99.90;;;;;;5045803;28;20213;-79
2020/12/15 01:49:49;;;;;;;20.77;17.37;;;9.90;99.90;;;;;;5046173;28;20206;-80
2020/12/15 01:52:17;;;;;;;21.23;17.63;;;9.90;99.90;;;;;;5046165;28;20234;-79
2020/12/15 01:54:45;;;;;;;22.73;18.33;;;9.90;99.90;;;;;;5046127;28;20237;-80
2020/12/15 01:57:11;;;;;;;21.43;17.50;;;9.90;99.90;;;;;;5045441;28;20209;-80
2020/12/15 01:59:37;;;;;;;24.40;17.67;;;9.80;99.90;;;;;;5045371;28;20197;-79
2020/12/15 02:02:05;;;;;;;21.63;16.93;;;9.80;99.90;;;;;;5045670;28;20202;-79
2020/12/15 02:04:31;;;;;;;22.20;18.27;;;9.80;99.90;;;;;;5045457;28;20296;-80
2020/12/15 02:06:57;;;;;;;20.73;16.93;;;9.80;99.90;;;;;;5045905;28;20222;-80
2020/12/15 02:09:24;;;;;;;19.73;17.60;;;9.90;99.90;;;;;;5044952;28;20198;-79
2020/12/15 02:11:50;;;;;;;23.57;18.77;;;9.80;99.90;;;;;;5044612;28;20230;-80
2020/12/15 02:14:16;;;;;;;22.53;18.07;;;9.90;99.90;;;;;;5045226;28;20205;-79
2020/12/15 02:16:49;;;;;;;26.20;18.23;;;9.90;99.90;;;;;;5044588;28;20667;-76
2020/12/15 02:19:17;;;;;;;22.37;17.90;;;9.80;99.90;;;;;;5044938;28;20190;-80
2020/12/15 02:21:52;;;;;;;21.73;18.43;;;9.80;99.90;;;;;;5045211;28;20206;-80
2020/12/15 02:24:18;;;;;;;24.27;18.30;;;9.90;99.90;;;;;;5044352;28;20284;-79
2020/12/15 02:26:45;;;;;;;22.27;19.50;;;9.80;99.90;;;;;;5045229;28;20209;-80
2020/12/15 02:29:12;;;;;;;25.67;20.03;;;9.90;99.90;;;;;;5044953;28;20237;-80
2020/12/15 02:31:38;;;;;;;25.80;19.57;;;9.90;99.90;;;;;;5044461;28;20275;-79
2020/12/15 02:34:05;;;;;;;23.07;20.03;;;9.90;99.90;;;;;;5044204;28;20841;-79
2020/12/15 02:36:31;;;;;;;25.30;20.87;;;9.90;99.90;;;;;;5044837;28;20198;-80
2020/12/15 02:39:08;;;;;;;25.63;21.37;;;9.90;99.90;;;;;;5044566;28;20211;-76
2020/12/15 02:41:34;;;;;;;26.80;21.47;;;9.90;99.90;;;;;;5044176;28;20565;-77
2020/12/15 02:44:02;;;;;;;24.57;21.77;;;9.90;99.90;;;;;;5043715;28;20205;-79
2020/12/15 02:46:28;;;;;;;26.67;22.43;;;9.90;99.90;;;;;;5044589;28;20202;-79
2020/12/15 02:48:55;;;;;;;27.50;22.27;;;9.90;99.90;;;;;;5044782;28;20206;-80
2020/12/15 02:51:22;;;;;;;31.53;22.33;;;9.90;99.90;;;;;;5044448;28;20316;-80
2020/12/15 02:53:49;;;;;;;28.77;23.00;;;10.00;99.90;;;;;;5043833;28;20224;-80
2020/12/15 02:56:20;;;;;;;28.53;23.10;;;10.00;99.90;;;;;;5044151;28;20206;-77
2020/12/15 02:58:47;;;;;;;26.97;22.43;;;10.00;99.90;;;;;;5043724;28;20206;-80
2020/12/15 03:01:13;;;;;;;27.13;22.77;;;10.00;99.90;;;;;;5044277;28;20218;-77
2020/12/15 03:03:39;;;;;;;30.60;24.43;;;10.00;99.90;;;;;;5043130;28;20206;-80
2020/12/15 03:06:06;;;;;;;26.03;22.40;;;10.00;99.90;;;;;;5042898;28;20205;-80
2020/12/15 03:08:32;;;;;;;33.80;22.73;;;10.00;99.90;;;;;;5043204;28;20590;-80
2020/12/15 03:10:59;;;;;;;28.53;23.27;;;10.00;99.90;;;;;;5043374;28;20205;-80
2020/12/15 03:13:26;;;;;;;25.93;22.93;;;10.00;99.90;;;;;;5042959;28;20640;-80
2020/12/15 03:15:52;;;;;;;28.40;22.93;;;10.10;99.90;;;;;;5043661;28;20213;-80
2020/12/15 03:18:18;;;;;;;29.73;22.47;;;10.10;99.90;;;;;;5043465;28;20221;-80
2020/12/15 03:20:47;;;;;;;29.20;23.63;;;10.10;99.90;;;;;;5036474;28;20203;-80
2020/12/15 03:23:14;;;;;;;28.87;22.60;;;10.00;99.90;;;;;;5023603;28;20203;-78
2020/12/15 03:25:40;;;;;;;29.50;23.50;;;10.10;99.90;;;;;;5023872;28;20253;-79
2020/12/15 03:28:07;;;;;;;26.70;22.30;;;10.10;99.90;;;;;;5023533;28;20219;-80
2020/12/15 03:30:35;;;;;;;30.43;23.07;;;10.10;99.90;;;;;;5023262;28;20206;-76
2020/12/15 03:33:01;;;;;;;28.33;22.63;;;10.10;99.90;;;;;;5023072;28;20231;-78
2020/12/15 03:35:27;;;;;;;29.47;23.03;;;10.10;99.90;;;;;;5023185;28;20216;-80
2020/12/15 03:37:55;;;;;;;29.63;22.23;;;10.10;99.90;;;;;;5023421;28;20690;-78
2020/12/15 03:40:21;;;;;;;32.97;24.37;;;10.10;99.90;;;;;;5022664;28;20206;-80
2020/12/15 03:42:47;;;;;;;32.53;23.40;;;10.10;99.90;;;;;;5022485;28;20194;-79
2020/12/15 03:45:14;;;;;;;30.13;24.17;;;10.10;99.90;;;;;;5023038;28;20225;-80
2020/12/15 03:47:41;;;;;;;35.47;25.70;;;10.10;99.90;;;;;;5023026;28;20206;-79
2020/12/15 03:50:09;;;;;;;31.57;25.30;;;10.20;99.90;;;;;;5022300;28;20629;-80
2020/12/15 03:52:36;;;;;;;34.17;24.03;;;10.10;99.90;;;;;;5022900;28;20856;-80
2020/12/15 03:55:03;;;;;;;31.03;24.80;;;10.10;99.90;;;;;;5022970;28;20733;-78
2020/12/15 03:57:29;;;;;;;29.60;24.17;;;10.20;99.90;;;;;;5027376;28;20229;-81
2020/12/15 03:59:55;;;;;;;29.17;23.47;;;10.20;99.90;;;;;;5027201;28;20206;-80
2020/12/15 04:02:21;;;;;;;38.00;24.10;;;10.20;99.90;;;;;;5026783;28;20202;-80
2020/12/15 04:04:48;;;;;;;31.57;23.93;;;10.20;99.90;;;;;;5027204;28;20210;-81
2020/12/15 04:07:15;;;;;;;34.67;24.23;;;10.20;99.90;;;;;;5026884;28;20533;-81
2020/12/15 04:09:41;;;;;;;31.50;23.90;;;10.20;99.90;;;;;;5026223;28;20206;-76
2020/12/15 04:12:07;;;;;;;31.13;23.90;;;10.20;99.90;;;;;;5026434;28;20257;-77
2020/12/15 04:14:34;;;;;;;32.57;24.03;;;10.20;99.90;;;;;;5026811;28;20289;-80
2020/12/15 04:17:00;;;;;;;29.83;23.50;;;10.20;99.90;;;;;;5026723;28;20206;-76
2020/12/15 04:19:27;;;;;;;29.83;22.73;;;10.20;99.90;;;;;;5027214;28;20221;-76
2020/12/15 04:21:54;;;;;;;29.70;22.60;;;10.20;99.90;;;;;;5042475;28;20206;-81
2020/12/15 04:24:20;;;;;;;28.30;21.67;;;10.20;99.90;;;;;;5046260;28;20216;-79
2020/12/15 04:26:46;;;;;;;30.57;22.60;;;10.20;99.90;;;;;;5047484;28;20210;-80
2020/12/15 04:29:13;;;;;;;27.13;22.00;;;10.20;99.90;;;;;;5046643;28;20205;-80
2020/12/15 04:31:39;;;;;;;27.73;21.97;;;10.20;99.90;;;;;;5045919;28;20202;-81
2020/12/15 04:34:05;;;;;;;28.20;22.03;;;10.20;99.90;;;;;;5046592;28;20321;-80
2020/12/15 04:36:31;;;;;;;25.27;20.80;;;10.20;99.90;;;;;;5047160;28;20544;-80
2020/12/15 04:38:59;;;;;;;28.40;20.97;;;10.20;99.90;;;;;;5046577;28;20286;-80
2020/12/15 04:41:25;;;;;;;27.93;20.93;;;10.20;99.90;;;;;;5046911;28;20823;-80
2020/12/15 04:43:52;;;;;;;26.33;20.67;;;10.20;99.90;;;;;;5046025;28;20221;-76
2020/12/15 04:46:22;;;;;;;24.97;19.80;;;10.20;99.90;;;;;;5045647;28;20201;-78
2020/12/15 04:48:53;;;;;;;25.77;19.57;;;10.20;99.90;;;;;;5046676;28;20232;-81
2020/12/15 04:51:25;;;;;;;23.10;19.73;;;10.20;99.90;;;;;;5045051;28;20201;-78
2020/12/15 04:53:54;;;;;;;23.47;19.23;;;10.20;99.90;;;;;;5045733;28;20222;-81
2020/12/15 04:56:32;;;;;;;23.63;18.53;;;10.20;99.90;;;;;;5045758;28;20316;-80
2020/12/15 04:58:59;;;;;;;21.07;17.83;;;10.20;99.90;;;;;;5046072;28;20213;-77
2020/12/15 05:01:25;;;;;;;22.27;18.33;;;10.20;99.90;;;;;;5046228;28;20190;-80
2020/12/15 05:03:52;;;;;;;22.13;18.57;;;10.20;99.90;;;;;;5046471;28;20601;-80
2020/12/15 05:06:25;;;;;;;19.97;16.60;;;10.20;99.90;;;;;;5045556;28;20600;-79
2020/12/15 05:08:52;;;;;;;25.30;17.33;;;10.20;99.90;;;;;;5046712;28;20284;-80
2020/12/15 05:11:18;;;;;;;20.73;18.00;;;10.20;99.90;;;;;;5045917;28;20303;-80
2020/12/15 05:13:45;;;;;;;20.20;16.50;;;10.20;99.90;;;;;;5045298;28;20615;-80
2020/12/15 05:16:11;;;;;;;20.53;16.73;;;10.20;99.90;;;;;;5044723;28;20198;-81
2020/12/15 05:18:38;;;;;;;18.90;16.20;;;10.20;99.90;;;;;;5045273;28;20206;-80
2020/12/15 05:21:14;;;;;;;21.30;17.70;;;10.20;99.90;;;;;;5034832;28;20262;-79
2020/12/15 05:23:45;;;;;;;21.17;17.03;;;10.20;99.90;;;;;;5024905;28;20194;-77
2020/12/15 05:26:11;;;;;;;21.63;17.03;;;10.20;99.90;;;;;;5025014;28;20669;-77
2020/12/15 05:28:38;;;;;;;20.43;16.63;;;10.30;99.90;;;;;;5024663;28;20195;-79
2020/12/15 05:31:05;;;;;;;20.03;16.47;;;10.30;99.90;;;;;;5024230;28;21030;-80
2020/12/15 05:33:33;;;;;;;18.83;16.80;;;10.30;99.90;;;;;;5024721;28;20611;-76
2020/12/15 05:35:59;;;;;;;23.70;17.13;;;10.30;99.90;;;;;;5025407;28;20662;-80
2020/12/15 05:38:25;;;;;;;23.80;17.03;;;10.30;99.90;;;;;;5024993;28;20896;-77
2020/12/15 05:40:52;;;;;;;21.13;16.47;;;10.30;99.90;;;;;;5023560;28;20206;-78
2020/12/15 05:43:26;;;;;;;21.17;16.73;;;10.30;99.90;;;;;;5024709;28;20225;-76
2020/12/15 05:45:52;;;;;;;19.73;16.37;;;10.30;99.90;;;;;;5024885;28;20261;-76
2020/12/15 05:48:26;;;;;;;17.67;15.73;;;10.30;99.90;;;;;;5023830;28;20862;-76
2020/12/15 05:50:57;;;;;;;20.97;16.40;;;10.20;99.90;;;;;;5024962;28;20333;-76
2020/12/15 05:53:24;;;;;;;18.37;15.30;;;10.20;99.90;;;;;;5024411;28;20289;-76
2020/12/15 05:55:50;;;;;;;19.63;16.30;;;10.20;99.90;;;;;;5024420;28;20874;-75
2020/12/15 05:58:17;;;;;;;21.60;17.13;;;10.30;99.90;;;;;;5024182;28;20293;-76
2020/12/15 06:00:43;;;;;;;22.07;16.50;;;10.20;99.90;;;;;;5024436;28;20253;-75
2020/12/15 06:03:09;;;;;;;20.67;16.47;;;10.20;99.90;;;;;;5023872;28;20199;-76
2020/12/15 06:05:37;;;;;;;18.57;16.30;;;10.30;99.90;;;;;;5024445;28;20203;-75
2020/12/15 06:08:05;;;;;;;19.77;16.33;;;10.30;99.90;;;;;;5023973;28;20602;-77
2020/12/15 06:10:33;;;;;;;23.73;18.53;;;10.30;99.90;;;;;;5023123;28;20202;-77
2020/12/15 06:13:01;;;;;;;19.50;17.27;;;10.30;99.90;;;;;;5024063;28;20242;-80
2020/12/15 06:15:28;;;;;;;20.77;16.20;;;10.20;99.90;;;;;;5024755;28;20206;-78
2020/12/15 06:17:56;;;;;;;21.63;16.40;;;10.20;99.90;;;;;;5023174;28;20215;-76
2020/12/15 06:20:23;;;;;;;19.40;16.57;;;10.20;99.90;;;;;;5026798;28;20813;-77
2020/12/15 06:22:55;;;;;;;20.87;17.23;;;10.20;99.90;;;;;;5043562;28;20364;-76
2020/12/15 06:25:27;;;;;;;19.23;16.93;;;10.30;99.90;;;;;;5043662;28;20657;-76
2020/12/15 06:28:05;;;;;;;18.13;16.27;;;10.30;99.90;;;;;;5043584;28;20525;-77
2020/12/15 06:30:34;;;;;;;23.43;19.03;;;10.30;99.90;;;;;;5043458;28;20198;-75
2020/12/15 06:33:02;;;;;;;20.47;17.23;;;10.30;99.90;;;;;;5043846;28;20222;-76
2020/12/15 06:35:29;;;;;;;22.37;18.37;;;10.30;99.90;;;;;;5043561;28;20194;-76
2020/12/15 06:37:56;;;;;;;20.90;18.70;;;10.30;99.90;;;;;;5042879;28;20229;-76
2020/12/15 06:40:22;;;;;;;21.00;18.47;;;10.30;99.90;;;;;;5043505;28;20547;-77
2020/12/15 06:42:50;;;;;;;20.93;18.20;;;10.30;99.90;;;;;;5043882;28;20498;-76
2020/12/15 06:45:21;;;;;;;22.77;17.80;;;10.30;99.90;;;;;;5042312;28;20209;-77
2020/12/15 06:47:56;;;;;;;23.17;18.93;;;10.30;99.90;;;;;;5043645;28;20332;-77
2020/12/15 06:50:22;;;;;;;25.13;18.70;;;10.40;99.90;;;;;;5043311;28;20535;-78
2020/12/15 06:52:49;;;;;;;26.67;19.23;;;10.40;99.90;;;;;;5042720;28;20229;-77
2020/12/15 06:55:26;;;;;;;21.27;18.70;;;10.40;99.90;;;;;;5043056;28;20209;-80
2020/12/15 06:57:58;;;;;;;22.17;18.67;;;10.40;99.90;;;;;;5042543;28;20194;-76
2020/12/15 07:00:33;;;;;;;22.83;18.83;;;10.40;99.90;;;;;;5043697;28;20339;-76
2020/12/15 07:03:06;;;;;;;23.27;19.80;;;10.40;99.90;;;;;;5043412;28;20197;-76
2020/12/15 07:05:34;;;;;;;23.30;19.67;;;10.40;99.90;;;;;;5043033;28;20193;-78
2020/12/15 07:08:05;;;;;;;24.23;20.23;;;10.40;99.90;;;;;;5042941;28;20201;-78
2020/12/15 07:10:33;;;;;;;24.03;20.10;;;10.40;99.90;;;;;;5043079;28;20235;-77
2020/12/15 07:13:00;;;;;;;22.17;19.77;;;10.40;99.90;;;;;;5042218;28;20264;-76
2020/12/15 07:15:27;;;;;;;26.73;21.63;;;10.40;99.90;;;;;;5043215;28;20672;-77
2020/12/15 07:17:54;;;;;;;25.80;20.37;;;10.40;99.90;;;;;;5043813;28;20206;-76
2020/12/15 07:20:21;;;;;;;24.63;21.07;;;10.40;99.90;;;;;;5039813;28;20312;-78
2020/12/15 07:22:48;;;;;;;25.00;20.77;;;10.40;99.90;;;;;;5023763;28;20202;-77
2020/12/15 07:25:16;;;;;;;23.63;21.13;;;10.40;99.90;;;;;;5023048;28;20211;-78
2020/12/15 07:27:45;;;;;;;26.90;21.50;;;10.50;99.90;;;;;;5022775;28;20232;-78
2020/12/15 07:30:14;;;;;;;26.33;21.73;;;10.50;99.90;;;;;;5022607;28;20213;-77
2020/12/15 07:32:41;;;;;;;24.17;20.40;;;10.50;99.90;;;;;;5023109;28;20276;-79
2020/12/15 07:35:09;;;;;;;26.60;21.47;;;10.40;99.90;;;;;;5022460;28;20243;-79
2020/12/15 07:51:58;;;;;;;26.83;20.37;;;10.50;99.90;;;;;;4715663;29;20213;-81
2020/12/15 07:54:24;;;;;;;26.67;22.10;;;10.40;99.90;;;;;;4811156;29;20233;-82
2020/12/15 07:56:52;;;;;;;27.23;20.67;;;10.40;99.90;;;;;;4812335;29;20203;-77
2020/12/15 07:59:19;;;;;;;21.90;19.47;;;10.50;99.90;;;;;;4929757;29;20212;-77
2020/12/15 08:01:46;;;;;;;26.53;18.97;;;10.50;99.90;;;;;;4941696;29;20209;-78
2020/12/15 08:04:13;;;;;;;26.37;19.33;;;10.40;99.90;;;;;;4942001;29;20672;-78
2020/12/15 08:06:41;;;;;;;23.83;18.00;;;10.50;99.90;;;;;;4942196;29;20513;-80
2020/12/15 08:09:10;;;;;;;24.97;19.13;;;10.50;99.90;;;;;;4941416;29;20240;-80
2020/12/15 08:11:37;;;;;;;22.67;18.33;;;10.50;99.90;;;;;;4942016;29;20264;-77
2020/12/15 08:14:05;;;;;;;25.90;19.77;;;10.50;99.90;;;;;;4942078;29;20224;-76
2020/12/15 08:16:32;;;;;;;22.90;18.80;;;10.50;99.90;;;;;;4976871;28;20197;-80
2020/12/15 08:18:59;;;;;;;25.20;18.73;;;10.50;99.90;;;;;;4998552;28;20207;-76
2020/12/15 08:21:38;;;;;;;27.57;18.93;;;10.40;99.90;;;;;;5034599;28;20516;-78
2020/12/15 08:24:07;;;;;;;23.50;18.07;;;10.40;99.90;;;;;;5042139;28;20284;-81
2020/12/15 08:26:35;;;;;;;24.33;19.47;;;10.40;99.90;;;;;;5042394;28;20213;-78
2020/12/15 08:29:07;;;;;;;24.33;18.93;;;10.50;99.90;;;;;;5042797;28;20602;-78
2020/12/15 08:31:35;;;;;;;26.60;18.07;;;10.50;99.90;;;;;;5043359;28;20713;-80
2020/12/15 08:34:01;;;;;;;24.23;17.77;;;10.50;99.90;;;;;;5043563;28;20291;-80
2020/12/15 08:36:27;;;;;;;21.67;17.37;;;10.50;99.90;;;;;;5042285;28;20598;-78
2020/12/15 08:38:55;;;;;;;23.33;16.70;;;10.50;99.90;;;;;;5042533;28;20664;-79
2020/12/15 08:41:22;;;;;;;22.03;17.27;;;10.50;99.90;;;;;;5044765;28;20409;-79
2020/12/15 08:43:50;;;;;;;25.87;19.00;;;10.50;99.90;;;;;;5046948;28;20259;-77
2020/12/15 08:46:21;;;;;;;25.63;16.70;;;10.50;99.90;;;;;;5047352;28;20198;-78
2020/12/15 08:48:52;;;;;;;27.40;17.17;;;10.50;99.90;;;;;;5046874;28;20505;-79
2020/12/15 08:51:18;;;;;;;25.00;16.93;;;10.50;99.90;;;;;;5045469;28;20479;-80
2020/12/15 08:53:46;;;;;;;22.20;16.83;;;10.50;99.90;;;;;;5045609;28;20237;-78
2020/12/15 08:56:14;;;;;;;24.90;17.40;;;10.50;99.90;;;;;;5044851;28;20202;-79
2020/12/15 08:58:41;;;;;;;27.50;16.00;;;10.50;99.90;;;;;;5046034;28;20202;-79
2020/12/15 09:01:08;;;;;;;24.10;17.70;;;10.50;99.90;;;;;;5046956;28;20202;-79
2020/12/15 09:03:46;;;;;;;25.60;18.60;;;10.50;99.90;;;;;;5047235;28;21049;-77
2020/12/15 09:06:13;;;;;;;21.73;17.20;;;10.60;99.90;;;;;;5045605;28;20209;-79
2020/12/15 09:08:47;;;;;;;25.77;17.60;;;10.50;99.90;;;;;;5047046;28;20209;-76
2020/12/15 09:11:15;;;;;;;24.80;17.40;;;10.60;99.90;;;;;;5044448;28;20227;-79
2020/12/15 09:13:52;;;;;;;23.33;17.83;;;10.60;99.90;;;;;;5045981;28;20596;-79
2020/12/15 09:16:25;;;;;;;25.30;17.10;;;10.60;99.90;;;;;;5046110;28;20301;-79
2020/12/15 09:18:52;;;;;;;25.33;17.00;;;10.60;99.90;;;;;;5046143;28;20928;-76
2020/12/15 09:21:19;;;;;;;22.50;16.90;;;10.50;99.90;;;;;;5035504;28;20289;-80
2020/12/15 09:23:48;;;;;;;19.77;14.23;;;10.50;99.90;;;;;;5026341;28;20231;-79
2020/12/15 09:26:15;;;;;;;23.40;15.83;;;10.60;99.90;;;;;;5025826;28;20301;-80
2020/12/15 09:28:41;;;;;;;21.63;14.37;;;10.60;99.90;;;;;;5026272;28;20203;-78
2020/12/15 09:31:11;;;;;;;24.07;14.60;;;10.60;99.90;;;;;;5025443;28;20214;-81
2020/12/15 09:33:38;;;;;;;21.43;15.50;;;10.60;99.90;;;;;;5025576;28;20223;-80
2020/12/15 09:36:04;;;;;;;24.57;14.50;;;10.60;99.90;;;;;;5025046;28;20210;-75
2020/12/15 09:38:30;;;;;;;25.27;14.33;;;10.60;99.90;;;;;;5024458;28;20205;-75
2020/12/15 09:40:57;;;;;;;22.03;14.03;;;10.60;99.90;;;;;;5024887;28;20658;-80
2020/12/15 09:43:23;;;;;;;18.77;13.87;;;10.60;99.90;;;;;;5026269;28;20506;-79
2020/12/15 09:45:49;;;;;;;21.27;14.90;;;10.60;99.90;;;;;;5026639;28;20213;-79
2020/12/15 09:48:15;;;;;;;22.17;13.87;;;10.60;99.90;;;;;;5026311;28;20198;-80
2020/12/15 09:50:42;;;;;;;21.83;13.77;;;10.70;99.90;;;;;;5027439;28;20207;-79
2020/12/15 09:53:09;;;;;;;17.10;12.03;;;10.70;99.90;;;;;;5025168;28;20226;-79
2020/12/15 09:55:35;;;;;;;19.77;13.30;;;10.70;99.90;;;;;;5025714;28;20652;-75
2020/12/15 09:58:01;;;;;;;16.30;12.33;;;10.70;99.90;;;;;;5025811;28;20735;-77
2020/12/15 10:00:27;;;;;;;21.73;13.93;;;10.70;99.90;;;;;;5026794;28;20264;-79
2020/12/15 10:02:54;;;;;;;24.23;15.67;;;10.70;99.90;;;;;;5025929;28;20585;-79
2020/12/15 10:05:20;;;;;;;22.67;14.43;;;10.70;99.90;;;;;;5026357;28;20203;-79
2020/12/15 10:07:47;;;;;;;22.93;14.57;;;10.70;99.90;;;;;;5025637;28;20203;-79
2020/12/15 10:10:16;;;;;;;16.97;11.53;;;10.70;99.90;;;;;;5025638;28;20202;-74
2020/12/15 10:12:42;;;;;;;17.33;11.57;;;10.80;99.90;;;;;;5025716;28;20241;-79
2020/12/15 10:15:10;;;;;;;14.17;12.17;;;10.80;99.90;;;;;;5026171;28;20321;-79
2020/12/15 10:17:36;;;;;;;15.97;12.00;;;10.80;99.90;;;;;;5026306;28;20202;-81
2020/12/15 10:20:03;;;;;;;16.60;11.83;;;10.90;99.90;;;;;;5025880;28;20195;-80
2020/12/15 10:22:32;;;;;;;17.33;12.67;;;10.90;99.90;;;;;;5045210;28;20202;-79
2020/12/15 10:24:59;;;;;;;18.87;11.93;;;10.90;99.90;;;;;;5045770;28;20202;-80
2020/12/15 10:27:25;;;;;;;15.93;11.83;;;11.00;99.90;;;;;;5045903;28;20245;-79
2020/12/15 10:29:52;;;;;;;21.50;11.93;;;11.00;99.90;;;;;;5044491;28;20251;-80
2020/12/15 10:32:18;;;;;;;16.73;10.87;;;11.00;99.90;;;;;;5045923;28;20669;-80
2020/12/15 10:34:45;;;;;;;21.10;11.77;;;11.00;99.90;;;;;;5045496;28;20210;-80
2020/12/15 10:37:12;;;;;;;18.20;11.20;;;11.00;99.90;;;;;;5045189;28;20201;-75
2020/12/15 10:39:39;;;;;;;16.93;10.73;;;11.00;99.90;;;;;;5044847;28;20209;-80
2020/12/15 10:42:06;;;;;;;14.60;10.33;;;11.00;99.90;;;;;;5045705;28;20208;-81
2020/12/15 10:44:32;;;;;;;13.90;9.50;;;10.90;99.90;;;;;;5044855;28;20876;-80
2020/12/15 10:47:01;;;;;;;12.53;9.93;;;10.90;99.90;;;;;;5045797;28;20206;-79
2020/12/15 10:49:28;;;;;;;13.90;9.50;;;10.90;99.90;;;;;;5045661;28;20324;-80
2020/12/15 10:51:54;;;;;;;13.03;9.90;;;11.00;99.90;;;;;;5044935;28;20248;-80
2020/12/15 10:54:21;;;;;;;13.17;9.07;;;11.00;99.90;;;;;;5045052;28;20571;-79
2020/12/15 10:56:47;;;;;;;18.53;10.10;;;11.00;99.90;;;;;;5045103;28;20198;-80
2020/12/15 10:59:14;;;;;;;13.77;9.83;;;11.00;99.90;;;;;;5044605;28;20295;-78
2020/12/15 11:01:41;;;;;;;15.27;9.53;;;11.00;99.90;;;;;;5044989;28;20690;-81
2020/12/15 11:04:07;;;;;;;16.27;10.10;;;11.00;99.90;;;;;;5043798;28;20247;-77
2020/12/15 11:06:36;;;;;;;15.20;9.23;;;11.00;99.90;;;;;;5045177;28;20209;-81
2020/12/15 11:09:03;;;;;;;11.03;9.20;;;11.00;99.90;;;;;;5044985;28;20289;-79
2020/12/15 11:11:29;;;;;;;10.93;9.13;;;11.00;99.90;;;;;;5044797;28;20404;-83
2020/12/15 11:13:55;;;;;;;12.53;9.73;;;11.00;99.90;;;;;;5044929;28;20218;-81
2020/12/15 11:16:23;;;;;;;15.53;9.57;;;11.00;99.90;;;;;;5044942;28;20209;-81
2020/12/15 11:18:49;;;;;;;13.43;9.07;;;11.00;99.90;;;;;;5044675;28;20198;-79
2020/12/15 11:21:16;;;;;;;15.03;9.77;;;11.00;99.90;;;;;;5033675;28;20216;-77
2020/12/15 11:23:42;;;;;;;12.47;9.37;;;11.00;99.90;;;;;;5024044;28;20201;-80
2020/12/15 11:26:08;;;;;;;12.67;8.90;;;11.00;99.90;;;;;;5022665;28;20203;-81
2020/12/15 11:28:35;;;;;;;16.30;10.40;;;11.00;99.90;;;;;;5023446;28;20246;-77
2020/12/15 11:31:02;;;;;;;13.87;9.87;;;11.00;99.90;;;;;;5022875;28;20199;-77
2020/12/15 11:33:29;;;;;;;14.50;9.50;;;10.90;99.90;;;;;;5022701;28;20280;-75
2020/12/15 11:35:55;;;;;;;15.23;10.10;;;10.90;99.90;;;;;;5023375;28;20257;-76
2020/12/15 11:38:21;;;;;;;15.13;9.50;;;10.90;99.90;;;;;;5022324;28;20248;-75
2020/12/15 11:40:47;;;;;;;15.73;9.80;;;10.90;99.90;;;;;;5022292;28;20225;-76
2020/12/15 11:43:14;;;;;;;16.90;10.53;;;10.90;99.90;;;;;;5022189;28;20199;-77
2020/12/15 11:45:40;;;;;;;13.87;9.10;;;11.00;99.90;;;;;;5022352;28;20198;-76
2020/12/15 11:48:06;;;;;;;11.17;9.73;;;11.00;99.90;;;;;;5022146;28;20207;-76
2020/12/15 11:50:33;;;;;;;11.43;9.23;;;11.00;99.90;;;;;;5023243;28;20206;-76
2020/12/15 11:52:59;;;;;;;14.63;10.37;;;11.10;99.90;;;;;;5022537;28;20317;-78
2020/12/15 11:55:26;;;;;;;14.83;9.70;;;11.10;99.90;;;;;;5022577;28;20218;-77
2020/12/15 11:57:52;;;;;;;15.60;9.53;;;11.10;99.90;;;;;;5022650;28;20277;-78
2020/12/15 12:00:18;;;;;;;14.03;9.37;;;11.10;99.90;;;;;;5022672;28;20206;-80
2020/12/15 12:02:44;;;;;;;15.93;9.17;;;11.10;99.90;;;;;;5023064;28;20203;-75
2020/12/15 12:05:11;;;;;;;11.40;8.70;;;11.10;99.90;;;;;;5022635;28;20202;-76
2020/12/15 12:07:38;;;;;;;10.67;9.07;;;11.10;99.90;;;;;;5022646;28;20202;-76
2020/12/15 12:10:05;;;;;;;12.33;9.27;;;11.10;99.90;;;;;;5022398;28;20194;-79
2020/12/15 12:12:31;;;;;;;11.43;9.50;;;11.10;99.90;;;;;;5022493;28;20226;-75
2020/12/15 12:14:57;;;;;;;11.43;8.20;;;11.00;99.90;;;;;;5021980;28;20873;-76
2020/12/15 12:17:23;;;;;;;11.37;9.03;;;11.00;99.90;;;;;;5025503;28;20276;-75
2020/12/15 12:19:49;;;;;;;10.67;8.63;;;11.00;99.90;;;;;;5027238;28;20217;-76
2020/12/15 12:22:16;;;;;;;14.63;9.60;;;11.00;99.90;;;;;;5044807;28;20209;-76
2020/12/15 12:24:43;;;;;;;10.97;8.33;;;11.00;99.90;;;;;;5046065;28;20259;-78
2020/12/15 12:27:09;;;;;;;13.97;8.90;;;11.00;99.90;;;;;;5046562;28;20202;-80
2020/12/15 12:29:36;;;;;;;9.67;8.67;;;11.00;99.90;;;;;;5046182;28;20629;-76
2020/12/15 12:32:03;;;;;;;13.87;8.80;;;11.10;99.90;;;;;;5045771;28;20593;-77
2020/12/15 12:34:29;;;;;;;16.27;9.67;;;11.10;99.90;;;;;;5046642;28;20249;-77
2020/12/15 12:36:55;;;;;;;13.07;8.60;;;11.10;99.90;;;;;;5046317;28;20213;-78
2020/12/15 12:39:21;;;;;;;10.23;8.30;;;11.10;99.90;;;;;;5046666;28;20205;-78
2020/12/15 12:41:51;;;;;;;9.53;8.53;;;11.10;99.90;;;;;;5045937;28;20531;-77
2020/12/15 12:44:17;;;;;;;10.50;8.17;;;11.10;99.90;;;;;;5045524;28;20194;-77
2020/12/15 12:46:43;;;;;;;11.13;8.20;;;11.10;99.90;;;;;;5045999;28;20213;-76